sensor_id;sensor_type;location;lat;lon;timestamp;temperature;humidity
6609;DHT22;61468;48.79282455;9.06262200;2022-08-25T00:01:00;25.20;1.00
6609;DHT22;61468;48.79282455;9.06262200;2022-08-25T00:03:44;25.20;1.00
6609;DHT22;61468;48.79282455;9.06262200;2022-08-25T00:06:28;25.20;1.00
6609;DHT22;61468;48.79282455;9.06262200;2022-08-25T00:09:19;25.20;1.00
6609;DHT22;61468;48.79282455;9.06262200;2022-08-25T00:12:03;25.20;1.00
6609;DHT22;61468;48.79282455;9.06262200;2022-08-25T00:14:47;25.20;1.00
6609;DHT22;61468;48.79282455;9.06262200;2022-08-25T00:17:31;25.20;1.00
6609;DHT22;61468;48.79282455;9.06262200;2022-08-25T00:20:15;25.10;1.00
6609;DHT22;61468;48.79282455;9.06262200;2022-08-25T00:23:00;25.10;1.00
6609;DHT22;61468;48.79282455;9.06262200;2022-08-25T00:25:44;25.10;1.00
6609;DHT22;61468;48.79282455;9.06262200;2022-08-25T00:28:28;25.10;1.00
6609;DHT22;61468;48.79282455;9.06262200;2022-08-25T00:31:15;25.10;1.00
6609;DHT22;61468;48.79282455;9.06262200;2022-08-25T00:34:01;25.10;1.00
6609;DHT22;61468;48.79282455;9.06262200;2022-08-25T00:36:45;25.10;1.00
6609;DHT22;61468;48.79282455;9.06262200;2022-08-25T00:39:30;25.10;1.00
6609;DHT22;61468;48.79282455;9.06262200;2022-08-25T00:42:14;25.10;1.00
6609;DHT22;61468;48.79282455;9.06262200;2022-08-25T00:44:58;25.10;1.00
6609;DHT22;61468;48.79282455;9.06262200;2022-08-25T00:47:42;25.10;1.00
6609;DHT22;61468;48.79282455;9.06262200;2022-08-25T00:50:28;25.10;1.00
6609;DHT22;61468;48.79282455;9.06262200;2022-08-25T00:53:13;25.10;1.00
6609;DHT22;61468;48.79282455;9.06262200;2022-08-25T00:55:57;25.10;1.00
6609;DHT22;61468;48.79282455;9.06262200;2022-08-25T00:58:41;25.10;1.00
6609;DHT22;61468;48.79282455;9.06262200;2022-08-25T01:01:25;25.00;1.00
6609;DHT22;61468;48.79282455;9.06262200;2022-08-25T01:04:09;25.00;1.00
6609;DHT22;61468;48.79282455;9.06262200;2022-08-25T01:06:54;25.00;1.00
6609;DHT22;61468;48.79282455;9.06262200;2022-08-25T01:09:38;25.00;1.00
6609;DHT22;61468;48.79282455;9.06262200;2022-08-25T01:12:23;25.00;1.00
6609;DHT22;61468;48.79282455;9.06262200;2022-08-25T01:15:07;25.00;1.00
6609;DHT22;61468;48.79282455;9.06262200;2022-08-25T01:17:53;25.00;1.00
6609;DHT22;61468;48.79282455;9.06262200;2022-08-25T01:20:37;25.00;1.00
6609;DHT22;61468;48.79282455;9.06262200;2022-08-25T01:23:22;25.00;1.00
6609;DHT22;61468;48.79282455;9.06262200;2022-08-25T01:28:50;25.00;1.00
6609;DHT22;61468;48.79282455;9.06262200;2022-08-25T01:31:58;25.00;1.00
6609;DHT22;61468;48.79282455;9.06262200;2022-08-25T01:34:43;25.00;1.00
6609;DHT22;61468;48.79282455;9.06262200;2022-08-25T01:37:27;25.00;1.00
6609;DHT22;61468;48.79282455;9.06262200;2022-08-25T01:40:12;25.00;1.00
6609;DHT22;61468;48.79282455;9.06262200;2022-08-25T01:42:57;25.00;1.00
6609;DHT22;61468;48.79282455;9.06262200;2022-08-25T01:45:45;25.00;1.00
6609;DHT22;61468;48.79282455;9.06262200;2022-08-25T01:48:30;25.00;1.00
6609;DHT22;61468;48.79282455;9.06262200;2022-08-25T01:51:15;25.00;1.00
6609;DHT22;61468;48.79282455;9.06262200;2022-08-25T01:54:02;25.00;1.00
6609;DHT22;61468;48.79282455;9.06262200;2022-08-25T01:56:46;25.00;1.00
6609;DHT22;61468;48.79282455;9.06262200;2022-08-25T01:59:30;25.00;1.00
6609;DHT22;61468;48.79282455;9.06262200;2022-08-25T02:02:14;25.00;1.00
6609;DHT22;61468;48.79282455;9.06262200;2022-08-25T02:04:58;24.90;1.00
6609;DHT22;61468;48.79282455;9.06262200;2022-08-25T02:07:42;24.90;1.00
6609;DHT22;61468;48.79282455;9.06262200;2022-08-25T02:10:27;24.90;1.00
6609;DHT22;61468;48.79282455;9.06262200;2022-08-25T02:13:11;24.90;1.00
6609;DHT22;61468;48.79282455;9.06262200;2022-08-25T02:15:56;24.90;1.00
6609;DHT22;61468;48.79282455;9.06262200;2022-08-25T02:18:40;24.90;1.00
6609;DHT22;61468;48.79282455;9.06262200;2022-08-25T02:21:25;24.90;1.00
6609;DHT22;61468;48.79282455;9.06262200;2022-08-25T02:24:09;24.90;1.00
6609;DHT22;61468;48.79282455;9.06262200;2022-08-25T02:26:54;24.90;1.00
6609;DHT22;61468;48.79282455;9.06262200;2022-08-25T02:29:38;24.90;1.00
6609;DHT22;61468;48.79282455;9.06262200;2022-08-25T02:32:22;24.90;1.00
6609;DHT22;61468;48.79282455;9.06262200;2022-08-25T02:35:07;24.90;1.00
6609;DHT22;61468;48.79282455;9.06262200;2022-08-25T02:37:51;24.90;1.00
6609;DHT22;61468;48.79282455;9.06262200;2022-08-25T02:40:35;24.90;1.00
6609;DHT22;61468;48.79282455;9.06262200;2022-08-25T02:43:19;24.90;1.00
6609;DHT22;61468;48.79282455;9.06262200;2022-08-25T02:46:03;24.80;1.00
6609;DHT22;61468;48.79282455;9.06262200;2022-08-25T02:48:48;24.90;1.00
6609;DHT22;61468;48.79282455;9.06262200;2022-08-25T02:51:32;24.80;1.00
6609;DHT22;61468;48.79282455;9.06262200;2022-08-25T02:54:16;24.80;1.00
6609;DHT22;61468;48.79282455;9.06262200;2022-08-25T02:57:00;24.80;1.00
6609;DHT22;61468;48.79282455;9.06262200;2022-08-25T02:59:44;24.80;1.00
6609;DHT22;61468;48.79282455;9.06262200;2022-08-25T03:02:31;24.80;1.00
6609;DHT22;61468;48.79282455;9.06262200;2022-08-25T03:05:15;24.80;1.00
6609;DHT22;61468;48.79282455;9.06262200;2022-08-25T03:07:59;24.90;1.00
6609;DHT22;61468;48.79282455;9.06262200;2022-08-25T03:10:43;24.80;1.00
6609;DHT22;61468;48.79282455;9.06262200;2022-08-25T03:13:27;24.80;1.00
6609;DHT22;61468;48.79282455;9.06262200;2022-08-25T03:16:12;24.80;1.00
6609;DHT22;61468;48.79282455;9.06262200;2022-08-25T03:18:56;24.80;1.00
6609;DHT22;61468;48.79282455;9.06262200;2022-08-25T03:21:40;24.80;1.00
6609;DHT22;61468;48.79282455;9.06262200;2022-08-25T03:24:25;24.80;1.00
6609;DHT22;61468;48.79282455;9.06262200;2022-08-25T03:27:09;24.80;1.00
6609;DHT22;61468;48.79282455;9.06262200;2022-08-25T03:29:53;24.80;1.00
6609;DHT22;61468;48.79282455;9.06262200;2022-08-25T03:32:39;24.80;1.00
6609;DHT22;61468;48.79282455;9.06262200;2022-08-25T03:35:23;24.80;1.00
6609;DHT22;61468;48.79282455;9.06262200;2022-08-25T03:38:07;24.80;1.00
6609;DHT22;61468;48.79282455;9.06262200;2022-08-25T03:40:52;24.80;1.00
6609;DHT22;61468;48.79282455;9.06262200;2022-08-25T03:43:36;24.80;1.00
6609;DHT22;61468;48.79282455;9.06262200;2022-08-25T03:46:24;24.80;1.00
6609;DHT22;61468;48.79282455;9.06262200;2022-08-25T03:49:10;24.70;1.00
6609;DHT22;61468;48.79282455;9.06262200;2022-08-25T03:51:54;24.70;1.00
6609;DHT22;61468;48.79282455;9.06262200;2022-08-25T03:54:39;24.80;1.00
6609;DHT22;61468;48.79282455;9.06262200;2022-08-25T03:57:23;24.80;1.00
6609;DHT22;61468;48.79282455;9.06262200;2022-08-25T04:00:08;24.70;1.00
6609;DHT22;61468;48.79282455;9.06262200;2022-08-25T04:02:52;24.70;1.00
6609;DHT22;61468;48.79282455;9.06262200;2022-08-25T04:05:36;24.70;1.00
6609;DHT22;61468;48.79282455;9.06262200;2022-08-25T04:08:21;24.70;1.00
6609;DHT22;61468;48.79282455;9.06262200;2022-08-25T04:11:09;24.70;1.00
6609;DHT22;61468;48.79282455;9.06262200;2022-08-25T04:13:54;24.70;1.00
6609;DHT22;61468;48.79282455;9.06262200;2022-08-25T04:16:39;24.70;1.00
6609;DHT22;61468;48.79282455;9.06262200;2022-08-25T04:19:23;24.70;1.00
6609;DHT22;61468;48.79282455;9.06262200;2022-08-25T04:22:07;24.70;1.00
6609;DHT22;61468;48.79282455;9.06262200;2022-08-25T04:24:52;24.60;1.00
6609;DHT22;61468;48.79282455;9.06262200;2022-08-25T04:27:36;24.70;1.00
6609;DHT22;61468;48.79282455;9.06262200;2022-08-25T04:30:20;24.60;1.00
6609;DHT22;61468;48.79282455;9.06262200;2022-08-25T04:33:04;24.70;1.00
6609;DHT22;61468;48.79282455;9.06262200;2022-08-25T04:35:49;24.70;1.00
6609;DHT22;61468;48.79282455;9.06262200;2022-08-25T04:38:32;24.70;1.00
6609;DHT22;61468;48.79282455;9.06262200;2022-08-25T04:41:18;24.70;1.00
6609;DHT22;61468;48.79282455;9.06262200;2022-08-25T04:44:03;24.70;1.00
6609;DHT22;61468;48.79282455;9.06262200;2022-08-25T04:46:48;24.60;1.00
6609;DHT22;61468;48.79282455;9.06262200;2022-08-25T04:49:33;24.60;1.00
6609;DHT22;61468;48.79282455;9.06262200;2022-08-25T04:52:17;24.60;1.00
6609;DHT22;61468;48.79282455;9.06262200;2022-08-25T04:55:01;24.70;1.00
6609;DHT22;61468;48.79282455;9.06262200;2022-08-25T04:57:45;24.60;1.00
6609;DHT22;61468;48.79282455;9.06262200;2022-08-25T05:00:29;24.60;1.00
6609;DHT22;61468;48.79282455;9.06262200;2022-08-25T05:03:13;24.60;1.00
6609;DHT22;61468;48.79282455;9.06262200;2022-08-25T05:05:58;24.60;1.00
6609;DHT22;61468;48.79282455;9.06262200;2022-08-25T05:08:42;24.60;1.00
6609;DHT22;61468;48.79282455;9.06262200;2022-08-25T05:11:27;24.60;1.00
6609;DHT22;61468;48.79282455;9.06262200;2022-08-25T05:14:11;24.60;1.00
6609;DHT22;61468;48.79282455;9.06262200;2022-08-25T05:16:58;24.70;1.00
6609;DHT22;61468;48.79282455;9.06262200;2022-08-25T05:19:42;24.60;1.00
6609;DHT22;61468;48.79282455;9.06262200;2022-08-25T05:22:26;24.60;1.00
6609;DHT22;61468;48.79282455;9.06262200;2022-08-25T05:25:10;24.60;1.00
6609;DHT22;61468;48.79282455;9.06262200;2022-08-25T05:27:54;24.60;1.00
6609;DHT22;61468;48.79282455;9.06262200;2022-08-25T05:30:39;24.60;1.00
6609;DHT22;61468;48.79282455;9.06262200;2022-08-25T05:33:24;24.60;1.00
6609;DHT22;61468;48.79282455;9.06262200;2022-08-25T05:36:08;24.60;1.00
6609;DHT22;61468;48.79282455;9.06262200;2022-08-25T05:38:53;24.60;1.00
6609;DHT22;61468;48.79282455;9.06262200;2022-08-25T05:41:37;24.60;1.00
6609;DHT22;61468;48.79282455;9.06262200;2022-08-25T05:44:21;24.60;1.00
6609;DHT22;61468;48.79282455;9.06262200;2022-08-25T05:47:05;24.60;1.00
6609;DHT22;61468;48.79282455;9.06262200;2022-08-25T05:49:50;24.60;1.00
6609;DHT22;61468;48.79282455;9.06262200;2022-08-25T05:52:34;24.60;1.00
6609;DHT22;61468;48.79282455;9.06262200;2022-08-25T05:55:18;24.60;1.00
6609;DHT22;61468;48.79282455;9.06262200;2022-08-25T05:58:02;24.60;1.00
6609;DHT22;61468;48.79282455;9.06262200;2022-08-25T06:00:47;24.60;1.00
6609;DHT22;61468;48.79282455;9.06262200;2022-08-25T06:03:31;24.60;1.00
6609;DHT22;61468;48.79282455;9.06262200;2022-08-25T06:06:15;24.60;1.00
6609;DHT22;61468;48.79282455;9.06262200;2022-08-25T06:09:00;24.60;1.00
6609;DHT22;61468;48.79282455;9.06262200;2022-08-25T06:11:46;24.60;1.00
6609;DHT22;61468;48.79282455;9.06262200;2022-08-25T06:14:30;24.60;1.00
6609;DHT22;61468;48.79282455;9.06262200;2022-08-25T06:17:14;24.70;1.00
6609;DHT22;61468;48.79282455;9.06262200;2022-08-25T06:19:58;24.60;1.00
6609;DHT22;61468;48.79282455;9.06262200;2022-08-25T06:22:42;24.60;1.00
6609;DHT22;61468;48.79282455;9.06262200;2022-08-25T06:25:26;24.50;1.00
6609;DHT22;61468;48.79282455;9.06262200;2022-08-25T06:28:10;24.50;1.00
6609;DHT22;61468;48.79282455;9.06262200;2022-08-25T06:30:58;24.50;1.00
6609;DHT22;61468;48.79282455;9.06262200;2022-08-25T06:33:43;24.50;1.00
6609;DHT22;61468;48.79282455;9.06262200;2022-08-25T06:36:27;24.50;1.00
6609;DHT22;61468;48.79282455;9.06262200;2022-08-25T06:39:11;24.60;1.00
6609;DHT22;61468;48.79282455;9.06262200;2022-08-25T06:41:56;24.60;1.00
6609;DHT22;61468;48.79282455;9.06262200;2022-08-25T06:44:40;24.60;1.00
6609;DHT22;61468;48.79282455;9.06262200;2022-08-25T06:47:24;24.60;1.00
6609;DHT22;61468;48.79282455;9.06262200;2022-08-25T06:50:08;24.60;1.00
6609;DHT22;61468;48.79282455;9.06262200;2022-08-25T06:52:53;24.60;1.00
6609;DHT22;61468;48.79282455;9.06262200;2022-08-25T06:55:37;24.70;1.00
6609;DHT22;61468;48.79282455;9.06262200;2022-08-25T06:58:21;24.70;1.00
6609;DHT22;61468;48.79282455;9.06262200;2022-08-25T07:01:09;24.80;1.00
6609;DHT22;61468;48.79282455;9.06262200;2022-08-25T07:03:54;24.80;1.00
6609;DHT22;61468;48.79282455;9.06262200;2022-08-25T07:06:40;24.80;1.00
6609;DHT22;61468;48.79282455;9.06262200;2022-08-25T07:09:24;24.90;1.00
6609;DHT22;61468;48.79282455;9.06262200;2022-08-25T07:12:08;25.00;1.00
6609;DHT22;61468;48.79282455;9.06262200;2022-08-25T07:14:53;25.10;1.00
6609;DHT22;61468;48.79282455;9.06262200;2022-08-25T07:17:37;25.10;1.00
6609;DHT22;61468;48.79282455;9.06262200;2022-08-25T07:20:21;25.20;1.00
6609;DHT22;61468;48.79282455;9.06262200;2022-08-25T07:23:05;25.20;1.00
6609;DHT22;61468;48.79282455;9.06262200;2022-08-25T07:25:50;25.30;1.00
6609;DHT22;61468;48.79282455;9.06262200;2022-08-25T07:28:35;25.30;1.00
6609;DHT22;61468;48.79282455;9.06262200;2022-08-25T07:31:19;25.30;1.00
6609;DHT22;61468;48.79282455;9.06262200;2022-08-25T07:34:03;25.30;1.00
6609;DHT22;61468;48.79282455;9.06262200;2022-08-25T07:37:07;25.40;1.00
6609;DHT22;61468;48.79282455;9.06262200;2022-08-25T07:39:51;25.50;1.00
6609;DHT22;61468;48.79282455;9.06262200;2022-08-25T07:42:35;25.40;1.00
6609;DHT22;61468;48.79282455;9.06262200;2022-08-25T07:45:20;25.40;1.00
6609;DHT22;61468;48.79282455;9.06262200;2022-08-25T07:48:08;25.40;1.00
6609;DHT22;61468;48.79282455;9.06262200;2022-08-25T07:50:53;25.60;1.00
6609;DHT22;61468;48.79282455;9.06262200;2022-08-25T07:53:37;25.90;1.00
6609;DHT22;61468;48.79282455;9.06262200;2022-08-25T07:56:22;25.90;1.00
6609;DHT22;61468;48.79282455;9.06262200;2022-08-25T07:59:07;25.70;1.00
6609;DHT22;61468;48.79282455;9.06262200;2022-08-25T08:01:51;25.70;1.00
6609;DHT22;61468;48.79282455;9.06262200;2022-08-25T08:04:35;25.70;1.00
6609;DHT22;61468;48.79282455;9.06262200;2022-08-25T08:07:24;25.60;1.00
6609;DHT22;61468;48.79282455;9.06262200;2022-08-25T08:10:09;25.50;1.00
6609;DHT22;61468;48.79282455;9.06262200;2022-08-25T08:12:53;25.50;1.00
6609;DHT22;61468;48.79282455;9.06262200;2022-08-25T08:15:40;25.50;1.00
6609;DHT22;61468;48.79282455;9.06262200;2022-08-25T08:18:25;25.50;1.00
6609;DHT22;61468;48.79282455;9.06262200;2022-08-25T08:21:13;25.50;1.00
6609;DHT22;61468;48.79282455;9.06262200;2022-08-25T08:23:58;25.50;1.00
6609;DHT22;61468;48.79282455;9.06262200;2022-08-25T08:26:43;25.40;1.00
6609;DHT22;61468;48.79282455;9.06262200;2022-08-25T08:29:27;25.40;1.00
6609;DHT22;61468;48.79282455;9.06262200;2022-08-25T08:32:11;25.40;1.00
6609;DHT22;61468;48.79282455;9.06262200;2022-08-25T08:34:56;25.30;1.00
6609;DHT22;61468;48.79282455;9.06262200;2022-08-25T08:37:40;25.30;1.00
6609;DHT22;61468;48.79282455;9.06262200;2022-08-25T08:40:25;25.30;1.00
6609;DHT22;61468;48.79282455;9.06262200;2022-08-25T08:43:10;25.30;1.00
6609;DHT22;61468;48.79282455;9.06262200;2022-08-25T08:45:58;25.30;1.00
6609;DHT22;61468;48.79282455;9.06262200;2022-08-25T08:51:30;25.30;1.00
6609;DHT22;61468;48.79282455;9.06262200;2022-08-25T08:54:17;25.30;1.00
6609;DHT22;61468;48.79282455;9.06262200;2022-08-25T08:57:06;25.30;1.00
6609;DHT22;61468;48.79282455;9.06262200;2022-08-25T08:59:53;25.40;1.00
6609;DHT22;61468;48.79282455;9.06262200;2022-08-25T09:02:44;25.40;1.00
6609;DHT22;61468;48.79282455;9.06262200;2022-08-25T09:05:29;25.40;1.00
6609;DHT22;61468;48.79282455;9.06262200;2022-08-25T09:08:14;25.40;1.00
6609;DHT22;61468;48.79282455;9.06262200;2022-08-25T09:11:01;25.40;1.00
6609;DHT22;61468;48.79282455;9.06262200;2022-08-25T09:13:56;25.40;1.00
6609;DHT22;61468;48.79282455;9.06262200;2022-08-25T09:19:45;25.40;1.00
6609;DHT22;61468;48.79282455;9.06262200;2022-08-25T09:25:41;25.50;1.00
6609;DHT22;61468;48.79282455;9.06262200;2022-08-25T09:28:34;25.50;1.00
6609;DHT22;61468;48.79282455;9.06262200;2022-08-25T09:31:30;25.60;1.00
6609;DHT22;61468;48.79282455;9.06262200;2022-08-25T09:34:19;25.60;1.00
6609;DHT22;61468;48.79282455;9.06262200;2022-08-25T09:37:03;25.50;1.00
6609;DHT22;61468;48.79282455;9.06262200;2022-08-25T09:39:47;25.50;1.00
6609;DHT22;61468;48.79282455;9.06262200;2022-08-25T09:42:45;25.50;1.00
6609;DHT22;61468;48.79282455;9.06262200;2022-08-25T09:45:39;25.50;1.00
6609;DHT22;61468;48.79282455;9.06262200;2022-08-25T09:48:29;25.60;1.00
6609;DHT22;61468;48.79282455;9.06262200;2022-08-25T09:56:58;25.50;1.00
6609;DHT22;61468;48.79282455;9.06262200;2022-08-25T09:59:44;25.50;1.00
6609;DHT22;61468;48.79282455;9.06262200;2022-08-25T10:02:29;25.60;1.00
6609;DHT22;61468;48.79282455;9.06262200;2022-08-25T10:05:17;25.60;1.00
6609;DHT22;61468;48.79282455;9.06262200;2022-08-25T10:08:03;25.60;1.00
6609;DHT22;61468;48.79282455;9.06262200;2022-08-25T10:10:53;25.60;1.00
6609;DHT22;61468;48.79282455;9.06262200;2022-08-25T10:13:40;25.70;1.00
6609;DHT22;61468;48.79282455;9.06262200;2022-08-25T10:16:25;25.60;1.00
6609;DHT22;61468;48.79282455;9.06262200;2022-08-25T10:19:31;25.60;1.00
6609;DHT22;61468;48.79282455;9.06262200;2022-08-25T10:25:07;25.70;1.00
6609;DHT22;61468;48.79282455;9.06262200;2022-08-25T10:30:45;25.60;1.00
6609;DHT22;61468;48.79282455;9.06262200;2022-08-25T10:36:48;25.70;1.00
6609;DHT22;61468;48.79282455;9.06262200;2022-08-25T10:39:40;25.70;1.00
6609;DHT22;61468;48.79282455;9.06262200;2022-08-25T10:42:35;25.70;1.00
6609;DHT22;61468;48.79282455;9.06262200;2022-08-25T10:45:23;25.70;1.00
6609;DHT22;61468;48.79282455;9.06262200;2022-08-25T10:48:35;25.80;1.00
6609;DHT22;61468;48.79282455;9.06262200;2022-08-25T10:54:19;25.80;1.00
6609;DHT22;61468;48.79282455;9.06262200;2022-08-25T10:57:30;25.80;1.00
6609;DHT22;61468;48.79282455;9.06262200;2022-08-25T11:00:15;25.80;1.00
6609;DHT22;61468;48.79282455;9.06262200;2022-08-25T11:08:36;25.80;1.00
6609;DHT22;61468;48.79282455;9.06262200;2022-08-25T11:11:27;25.80;1.00
6609;DHT22;61468;48.79282455;9.06262200;2022-08-25T11:14:15;25.80;1.00
6609;DHT22;61468;48.79282455;9.06262200;2022-08-25T11:19:49;25.80;1.00
6609;DHT22;61468;48.79282455;9.06262200;2022-08-25T11:22:45;25.90;1.00
6609;DHT22;61468;48.79282455;9.06262200;2022-08-25T11:25:38;26.00;1.00
6609;DHT22;61468;48.79282455;9.06262200;2022-08-25T11:28:33;26.00;1.00
6609;DHT22;61468;48.79282455;9.06262200;2022-08-25T11:31:19;26.10;1.00
6609;DHT22;61468;48.79282455;9.06262200;2022-08-25T11:34:05;26.20;1.00
6609;DHT22;61468;48.79282455;9.06262200;2022-08-25T11:36:53;26.20;1.00
6609;DHT22;61468;48.79282455;9.06262200;2022-08-25T11:48:57;26.00;1.00
6609;DHT22;61468;48.79282455;9.06262200;2022-08-25T11:51:44;26.10;1.00
6609;DHT22;61468;48.79282455;9.06262200;2022-08-25T11:54:34;26.20;1.00
6609;DHT22;61468;48.79282455;9.06262200;2022-08-25T11:57:22;26.30;1.00
6609;DHT22;61468;48.79282455;9.06262200;2022-08-25T12:00:14;26.30;1.00
6609;DHT22;61468;48.79282455;9.06262200;2022-08-25T12:11:54;26.20;1.00
6609;DHT22;61468;48.79282455;9.06262200;2022-08-25T12:14:40;26.20;1.00
6609;DHT22;61468;48.79282455;9.06262200;2022-08-25T12:17:26;26.20;1.00
6609;DHT22;61468;48.79282455;9.06262200;2022-08-25T12:20:20;26.20;1.00
6609;DHT22;61468;48.79282455;9.06262200;2022-08-25T12:26:39;26.30;1.00
6609;DHT22;61468;48.79282455;9.06262200;2022-08-25T12:38:15;26.40;1.00
6609;DHT22;61468;48.79282455;9.06262200;2022-08-25T12:41:07;26.40;1.00
6609;DHT22;61468;48.79282455;9.06262200;2022-08-25T12:43:52;26.40;1.00
6609;DHT22;61468;48.79282455;9.06262200;2022-08-25T12:46:37;26.40;1.00
6609;DHT22;61468;48.79282455;9.06262200;2022-08-25T12:49:29;26.50;1.00
6609;DHT22;61468;48.79282455;9.06262200;2022-08-25T12:52:15;26.50;1.00
6609;DHT22;61468;48.79282455;9.06262200;2022-08-25T12:55:02;26.40;1.00
6609;DHT22;61468;48.79282455;9.06262200;2022-08-25T12:57:54;26.50;1.00
6609;DHT22;61468;48.79282455;9.06262200;2022-08-25T13:06:41;26.60;1.00
6609;DHT22;61468;48.79282455;9.06262200;2022-08-25T13:09:44;26.70;1.00
6609;DHT22;61468;48.79282455;9.06262200;2022-08-25T13:12:32;26.70;1.00
6609;DHT22;61468;48.79282455;9.06262200;2022-08-25T13:15:35;26.80;1.00
6609;DHT22;61468;48.79282455;9.06262200;2022-08-25T13:18:21;26.80;1.00
6609;DHT22;61468;48.79282455;9.06262200;2022-08-25T13:21:16;26.70;1.00
6609;DHT22;61468;48.79282455;9.06262200;2022-08-25T13:24:01;26.70;1.00
6609;DHT22;61468;48.79282455;9.06262200;2022-08-25T13:26:49;27.00;1.00
6609;DHT22;61468;48.79282455;9.06262200;2022-08-25T13:29:36;27.10;1.00
6609;DHT22;61468;48.79282455;9.06262200;2022-08-25T13:32:32;27.00;1.00
6609;DHT22;61468;48.79282455;9.06262200;2022-08-25T13:35:18;26.80;1.00
6609;DHT22;61468;48.79282455;9.06262200;2022-08-25T13:38:17;26.90;1.00
6609;DHT22;61468;48.79282455;9.06262200;2022-08-25T13:41:02;27.00;1.00
6609;DHT22;61468;48.79282455;9.06262200;2022-08-25T13:43:46;27.20;1.00
6609;DHT22;61468;48.79282455;9.06262200;2022-08-25T13:46:30;27.20;1.00
6609;DHT22;61468;48.79282455;9.06262200;2022-08-25T13:49:24;27.10;1.00
6609;DHT22;61468;48.79282455;9.06262200;2022-08-25T13:52:14;27.00;1.00
6609;DHT22;61468;48.79282455;9.06262200;2022-08-25T13:54:59;27.00;1.00
6609;DHT22;61468;48.79282455;9.06262200;2022-08-25T13:57:44;27.10;1.00
6609;DHT22;61468;48.79282455;9.06262200;2022-08-25T14:06:32;27.20;1.00
6609;DHT22;61468;48.79282455;9.06262200;2022-08-25T14:09:16;27.00;1.00
6609;DHT22;61468;48.79282455;9.06262200;2022-08-25T14:12:01;27.00;1.00
6609;DHT22;61468;48.79282455;9.06262200;2022-08-25T14:14:55;27.00;1.00
6609;DHT22;61468;48.79282455;9.06262200;2022-08-25T14:17:40;27.00;1.00
6609;DHT22;61468;48.79282455;9.06262200;2022-08-25T14:20:26;26.90;1.00
6609;DHT22;61468;48.79282455;9.06262200;2022-08-25T14:23:14;26.90;1.00
6609;DHT22;61468;48.79282455;9.06262200;2022-08-25T14:25:59;26.80;1.00
6609;DHT22;61468;48.79282455;9.06262200;2022-08-25T14:28:43;26.80;1.00
6609;DHT22;61468;48.79282455;9.06262200;2022-08-25T14:31:32;26.70;1.00
6609;DHT22;61468;48.79282455;9.06262200;2022-08-25T14:34:17;26.70;1.00
6609;DHT22;61468;48.79282455;9.06262200;2022-08-25T14:37:09;26.70;1.00
6609;DHT22;61468;48.79282455;9.06262200;2022-08-25T14:39:38;26.60;1.00
6609;DHT22;61468;48.79282455;9.06262200;2022-08-25T14:42:22;26.60;1.00
6609;DHT22;61468;48.79282455;9.06262200;2022-08-25T14:45:06;26.60;1.00
6609;DHT22;61468;48.79282455;9.06262200;2022-08-25T14:47:51;26.60;1.00
6609;DHT22;61468;48.79282455;9.06262200;2022-08-25T14:50:35;26.60;1.00
6609;DHT22;61468;48.79282455;9.06262200;2022-08-25T14:53:20;26.60;1.00
6609;DHT22;61468;48.79282455;9.06262200;2022-08-25T14:56:04;26.60;1.00
6609;DHT22;61468;48.79282455;9.06262200;2022-08-25T14:58:48;26.60;1.00
6609;DHT22;61468;48.79282455;9.06262200;2022-08-25T15:01:33;26.60;1.00
6609;DHT22;61468;48.79282455;9.06262200;2022-08-25T15:04:21;26.60;1.00
6609;DHT22;61468;48.79282455;9.06262200;2022-08-25T15:07:05;26.50;1.00
6609;DHT22;61468;48.79282455;9.06262200;2022-08-25T15:10:09;26.50;1.00
6609;DHT22;61468;48.79282455;9.06262200;2022-08-25T15:12:53;26.50;1.00
6609;DHT22;61468;48.79282455;9.06262200;2022-08-25T15:15:38;26.50;1.00
6609;DHT22;61468;48.79282455;9.06262200;2022-08-25T15:18:23;26.50;1.00
6609;DHT22;61468;48.79282455;9.06262200;2022-08-25T15:21:08;26.50;1.00
6609;DHT22;61468;48.79282455;9.06262200;2022-08-25T15:23:53;26.60;1.00
6609;DHT22;61468;48.79282455;9.06262200;2022-08-25T15:26:39;26.60;1.00
6609;DHT22;61468;48.79282455;9.06262200;2022-08-25T15:29:24;26.60;1.00
6609;DHT22;61468;48.79282455;9.06262200;2022-08-25T15:32:09;26.60;1.00
6609;DHT22;61468;48.79282455;9.06262200;2022-08-25T15:34:54;26.60;1.00
6609;DHT22;61468;48.79282455;9.06262200;2022-08-25T15:37:38;26.60;1.00
6609;DHT22;61468;48.79282455;9.06262200;2022-08-25T15:40:22;26.50;1.00
6609;DHT22;61468;48.79282455;9.06262200;2022-08-25T15:43:06;26.50;1.00
6609;DHT22;61468;48.79282455;9.06262200;2022-08-25T15:45:50;26.50;1.00
6609;DHT22;61468;48.79282455;9.06262200;2022-08-25T15:48:35;26.50;1.00
6609;DHT22;61468;48.79282455;9.06262200;2022-08-25T15:51:19;26.60;1.00
6609;DHT22;61468;48.79282455;9.06262200;2022-08-25T15:54:03;26.70;1.00
6609;DHT22;61468;48.79282455;9.06262200;2022-08-25T15:56:47;26.90;1.00
6609;DHT22;61468;48.79282455;9.06262200;2022-08-25T15:59:31;27.00;1.00
6609;DHT22;61468;48.79282455;9.06262200;2022-08-25T16:02:16;26.90;1.00
6609;DHT22;61468;48.79282455;9.06262200;2022-08-25T16:05:00;26.80;1.00
6609;DHT22;61468;48.79282455;9.06262200;2022-08-25T16:07:45;26.90;1.00
6609;DHT22;61468;48.79282455;9.06262200;2022-08-25T16:10:36;26.80;1.00
6609;DHT22;61468;48.79282455;9.06262200;2022-08-25T16:13:20;26.80;1.00
6609;DHT22;61468;48.79282455;9.06262200;2022-08-25T16:16:05;26.70;1.00
6609;DHT22;61468;48.79282455;9.06262200;2022-08-25T16:18:50;26.80;1.00
6609;DHT22;61468;48.79282455;9.06262200;2022-08-25T16:21:34;26.90;1.00
6609;DHT22;61468;48.79282455;9.06262200;2022-08-25T16:24:20;27.10;1.00
6609;DHT22;61468;48.79282455;9.06262200;2022-08-25T16:27:04;27.10;1.00
6609;DHT22;61468;48.79282455;9.06262200;2022-08-25T16:29:48;27.20;1.00
6609;DHT22;61468;48.79282455;9.06262200;2022-08-25T16:32:32;27.20;1.00
6609;DHT22;61468;48.79282455;9.06262200;2022-08-25T16:35:17;27.30;1.00
6609;DHT22;61468;48.79282455;9.06262200;2022-08-25T16:38:01;27.30;1.00
6609;DHT22;61468;48.79282455;9.06262200;2022-08-25T16:40:47;27.30;1.00
6609;DHT22;61468;48.79282455;9.06262200;2022-08-25T16:43:31;27.40;1.00
6609;DHT22;61468;48.79282455;9.06262200;2022-08-25T16:46:16;27.40;1.00
6609;DHT22;61468;48.79282455;9.06262200;2022-08-25T16:49:00;27.40;1.00
6609;DHT22;61468;48.79282455;9.06262200;2022-08-25T16:51:45;27.40;1.00